createdAt,value
2022-10-08T00:00:03.045Z,5.00
2022-10-08T00:00:40.576Z,6.00
2022-10-08T00:01:40.758Z,5.40
2022-10-08T00:02:40.546Z,5.70
2022-10-08T00:03:40.689Z,5.70
2022-10-08T00:04:40.530Z,6.00
2022-10-08T00:05:40.645Z,6.30
2022-10-08T00:06:40.486Z,5.50
2022-10-08T00:07:40.647Z,6.00
2022-10-08T00:08:40.805Z,5.70
2022-10-08T00:09:40.648Z,5.70
2022-10-08T00:10:40.646Z,6.10
2022-10-08T00:11:40.496Z,6.30
2022-10-08T00:12:40.576Z,5.80
2022-10-08T00:13:40.696Z,5.70
2022-10-08T00:14:40.647Z,5.20
2022-10-08T00:15:40.647Z,5.50
2022-10-08T00:16:40.419Z,5.30
2022-10-08T00:17:40.646Z,5.30
2022-10-08T00:18:40.806Z,5.70
2022-10-08T00:19:40.655Z,5.50
2022-10-08T00:20:40.326Z,5.50
2022-10-08T00:21:40.648Z,5.40
2022-10-08T00:22:40.266Z,5.60
2022-10-08T00:23:41.926Z,5.10
2022-10-08T00:24:40.507Z,5.00
2022-10-08T00:25:40.326Z,5.30
2022-10-08T00:26:43.922Z,5.40
2022-10-08T00:27:40.646Z,5.80
2022-10-08T00:28:40.585Z,6.00
2022-10-08T00:29:40.167Z,5.50
2022-10-08T00:30:40.524Z,5.70
2022-10-08T00:31:40.216Z,6.00
2022-10-08T00:32:40.807Z,5.90
2022-10-08T00:33:40.099Z,5.80
2022-10-08T00:34:40.487Z,5.70
2022-10-08T00:35:40.087Z,5.70
2022-10-08T00:36:40.810Z,5.90
2022-10-08T00:37:40.329Z,6.10
2022-10-08T00:38:40.489Z,5.80
2022-10-08T00:39:40.096Z,5.50
2022-10-08T00:40:42.176Z,6.10
2022-10-08T00:41:40.327Z,6.20
2022-10-08T00:42:40.518Z,5.60
2022-10-08T00:43:40.330Z,5.50
2022-10-08T00:44:40.098Z,6.00
2022-10-08T00:45:40.072Z,5.70
2022-10-08T00:46:40.487Z,5.90
2022-10-08T00:47:40.027Z,5.90
2022-10-08T00:48:40.169Z,6.40
2022-10-08T00:49:40.326Z,6.20
2022-10-08T00:50:40.247Z,6.20
2022-10-08T00:51:40.328Z,6.10
2022-10-08T00:52:40.488Z,6.00
2022-10-08T00:53:40.086Z,6.20
2022-10-08T00:54:41.128Z,5.80
2022-10-08T00:55:43.616Z,5.90
2022-10-08T00:56:40.167Z,6.10
2022-10-08T00:57:40.007Z,6.40
2022-10-08T00:58:40.169Z,6.10
2022-10-08T00:59:40.335Z,6.30
2022-10-08T01:00:39.869Z,6.60
2022-10-08T01:01:40.047Z,5.30
2022-10-08T01:02:40.007Z,6.60
2022-10-08T01:03:41.287Z,6.80
2022-10-08T01:04:40.167Z,5.80
2022-10-08T01:05:40.007Z,6.10
2022-10-08T01:06:39.687Z,6.00
2022-10-08T01:07:40.008Z,5.60
2022-10-08T01:08:39.686Z,5.80
2022-10-08T01:09:40.325Z,5.90
2022-10-08T01:10:39.616Z,6.10
2022-10-08T01:11:39.687Z,5.60
2022-10-08T01:12:39.618Z,5.60
2022-10-08T01:13:40.326Z,6.10
2022-10-08T01:14:39.858Z,6.80
2022-10-08T01:15:39.689Z,5.90
2022-10-08T01:16:39.671Z,6.60
2022-10-08T01:17:40.006Z,6.50
2022-10-08T01:18:39.617Z,6.30
2022-10-08T01:19:40.006Z,5.90
2022-10-08T01:20:39.530Z,5.60
2022-10-08T01:21:39.687Z,6.30
2022-10-08T01:22:39.527Z,5.60
2022-10-08T01:23:39.690Z,5.90
2022-10-08T01:24:39.608Z,6.30
2022-10-08T01:25:39.717Z,5.80
2022-10-08T01:26:39.428Z,6.40
2022-10-08T01:27:39.722Z,6.20
2022-10-08T01:28:39.693Z,6.10
2022-10-08T01:29:39.688Z,5.70
2022-10-08T01:30:39.536Z,6.20
2022-10-08T01:31:39.571Z,6.00
2022-10-08T01:32:39.457Z,6.90
2022-10-08T01:33:40.011Z,6.60
2022-10-08T01:34:39.287Z,6.30
2022-10-08T01:35:39.398Z,6.70
2022-10-08T01:36:39.528Z,5.90
2022-10-08T01:37:40.966Z,5.90
2022-10-08T01:38:39.367Z,5.50
2022-10-08T01:39:39.368Z,6.60
2022-10-08T01:40:39.287Z,6.20
2022-10-08T01:41:40.007Z,6.60
2022-10-08T01:42:39.286Z,6.50
2022-10-08T01:43:41.607Z,6.20
2022-10-08T01:44:39.366Z,6.50
2022-10-08T01:45:39.411Z,7.00
2022-10-08T01:46:39.206Z,6.80
2022-10-08T01:47:40.650Z,6.90
2022-10-08T01:48:39.207Z,6.00
2022-10-08T01:49:39.370Z,7.00
2022-10-08T01:50:39.216Z,6.90
2022-10-08T01:51:39.370Z,6.60
2022-10-08T01:52:39.529Z,6.50
2022-10-08T01:53:39.400Z,6.20
2022-10-08T01:54:39.301Z,6.40
2022-10-08T01:55:39.366Z,6.50
2022-10-08T01:56:39.045Z,6.30
2022-10-08T01:57:39.368Z,6.20
2022-10-08T01:58:39.206Z,6.60
2022-10-08T01:59:39.366Z,7.20
2022-10-08T02:00:38.969Z,6.70
2022-10-08T02:02:00.210Z,6.70
2022-10-08T02:02:39.314Z,7.00
2022-10-08T02:03:39.371Z,7.10
2022-10-08T02:04:38.969Z,7.50
2022-10-08T02:05:39.048Z,6.50
2022-10-08T02:06:38.977Z,6.60
2022-10-08T02:07:39.129Z,6.90
2022-10-08T02:08:38.968Z,6.10
2022-10-08T02:09:38.888Z,6.00
2022-10-08T02:10:38.890Z,7.00
2022-10-08T02:11:39.049Z,6.70
2022-10-08T02:12:38.891Z,6.70
2022-10-08T02:13:41.291Z,6.10
2022-10-08T02:14:38.969Z,6.50
2022-10-08T02:15:39.047Z,6.10
2022-10-08T02:16:38.960Z,6.80
2022-10-08T02:17:39.050Z,6.30
2022-10-08T02:18:38.970Z,6.60
2022-10-08T02:19:39.051Z,6.50
2022-10-08T02:20:38.887Z,6.20
2022-10-08T02:21:40.322Z,6.40
2022-10-08T02:22:38.889Z,6.20
2022-10-08T02:23:39.090Z,6.40
2022-10-08T02:24:38.889Z,6.30
2022-10-08T02:25:38.730Z,6.50
2022-10-08T02:26:38.881Z,6.80
2022-10-08T02:27:59.889Z,6.20
2022-10-08T02:28:38.693Z,6.30
2022-10-08T02:29:39.047Z,6.70
2022-10-08T02:30:38.882Z,6.50
2022-10-08T02:31:39.176Z,6.30
2022-10-08T02:32:38.656Z,6.30
2022-10-08T02:33:59.879Z,6.60
2022-10-08T02:34:38.684Z,6.50
2022-10-08T02:35:38.564Z,6.70
2022-10-08T02:36:38.661Z,6.40
2022-10-08T02:37:40.968Z,6.80
2022-10-08T02:38:38.662Z,6.70
2022-10-08T02:39:38.761Z,6.40
2022-10-08T02:40:38.692Z,6.50
2022-10-08T02:41:38.760Z,6.60
2022-10-08T02:42:38.660Z,6.60
2022-10-08T02:43:40.730Z,6.60
2022-10-08T02:44:38.748Z,6.80
2022-10-08T02:45:38.454Z,6.80
2022-10-08T02:46:38.342Z,6.80
2022-10-08T02:47:38.763Z,6.50
2022-10-08T02:48:38.572Z,6.50
2022-10-08T02:49:38.733Z,6.50
2022-10-08T02:50:38.561Z,6.80
2022-10-08T02:51:40.000Z,6.50
2022-10-08T02:52:38.340Z,6.20
2022-10-08T02:53:38.409Z,6.40
2022-10-08T02:54:38.331Z,7.00
2022-10-08T02:55:38.491Z,6.60
2022-10-08T02:56:38.569Z,6.50
2022-10-08T02:57:38.728Z,6.50
2022-10-08T02:58:38.573Z,6.40
2022-10-08T02:59:38.728Z,6.50
2022-10-08T03:00:38.252Z,6.70
2022-10-08T03:01:38.450Z,6.60
2022-10-08T03:02:38.294Z,6.50
2022-10-08T03:03:38.409Z,6.80
2022-10-08T03:04:38.571Z,7.20
2022-10-08T03:05:38.403Z,6.60
2022-10-08T03:06:38.091Z,7.70
2022-10-08T03:07:38.169Z,7.30
2022-10-08T03:08:38.332Z,7.40
2022-10-08T03:09:38.721Z,8.00
2022-10-08T03:10:38.010Z,7.30
2022-10-08T03:11:39.684Z,7.60
2022-10-08T03:12:38.242Z,7.90
2022-10-08T03:13:38.490Z,7.60
2022-10-08T03:14:38.001Z,7.60
2022-10-08T03:15:38.283Z,7.60
2022-10-08T03:16:38.051Z,8.20
2022-10-08T03:17:38.191Z,8.50
2022-10-08T03:18:38.001Z,8.40
2022-10-08T03:19:38.401Z,8.20
2022-10-08T03:20:38.009Z,8.40
2022-10-08T03:21:38.087Z,8.50
2022-10-08T03:22:37.921Z,8.00
2022-10-08T03:23:38.401Z,8.30
2022-10-08T03:24:37.931Z,8.10
2022-10-08T03:25:38.168Z,8.40
2022-10-08T03:26:37.922Z,8.50
2022-10-08T03:27:38.405Z,7.90
2022-10-08T03:28:38.384Z,8.40
2022-10-08T03:29:39.043Z,9.00
2022-10-08T03:30:37.970Z,9.00
2022-10-08T03:31:38.210Z,8.20
2022-10-08T03:32:37.722Z,8.60
2022-10-08T03:33:38.411Z,8.20
2022-10-08T03:34:37.981Z,7.80
2022-10-08T03:35:38.122Z,8.10
2022-10-08T03:36:37.931Z,7.70
2022-10-08T03:37:37.800Z,8.60
2022-10-08T03:38:37.649Z,8.50
2022-10-08T03:39:38.415Z,8.10
2022-10-08T03:40:37.693Z,8.80
2022-10-08T03:41:37.768Z,8.80
2022-10-08T03:42:37.931Z,8.00
2022-10-08T03:43:38.082Z,7.60
2022-10-08T03:44:37.929Z,8.00
2022-10-08T03:45:37.801Z,8.40
2022-10-08T03:46:37.923Z,8.30
2022-10-08T03:47:37.771Z,7.30
2022-10-08T03:48:37.531Z,7.60
2022-10-08T03:49:38.091Z,8.40
2022-10-08T03:50:37.607Z,8.40
2022-10-08T03:51:38.084Z,9.00
2022-10-08T03:52:37.934Z,9.20
2022-10-08T03:53:39.739Z,8.40
2022-10-08T03:54:37.423Z,8.70
2022-10-08T03:55:38.083Z,8.50
2022-10-08T03:56:37.404Z,8.50
2022-10-08T03:57:37.762Z,8.20
2022-10-08T03:58:37.382Z,7.80
2022-10-08T03:59:38.765Z,7.80
2022-10-08T04:00:37.372Z,8.10
2022-10-08T04:01:38.126Z,7.30
2022-10-08T04:02:37.411Z,7.70
2022-10-08T04:03:37.802Z,7.90
2022-10-08T04:04:37.386Z,7.60
2022-10-08T04:05:38.082Z,7.90
2022-10-08T04:06:37.320Z,8.50
2022-10-08T04:07:37.531Z,7.60
2022-10-08T04:08:37.372Z,8.50
2022-10-08T04:09:37.613Z,8.20
2022-10-08T04:10:37.283Z,7.90
2022-10-08T04:11:37.771Z,8.10
2022-10-08T04:12:37.211Z,8.20
2022-10-08T04:13:38.731Z,7.60
2022-10-08T04:14:37.371Z,7.60
2022-10-08T04:15:58.895Z,7.80
2022-10-08T04:16:37.362Z,7.50
2022-10-08T04:17:37.482Z,7.60
2022-10-08T04:18:37.109Z,7.10
2022-10-08T04:19:37.443Z,7.70
2022-10-08T04:20:37.371Z,7.40
2022-10-08T04:21:39.463Z,7.10
2022-10-08T04:22:37.045Z,7.30
2022-10-08T04:23:58.563Z,7.40
2022-10-08T04:24:37.053Z,7.50
2022-10-08T04:25:38.170Z,7.70
2022-10-08T04:26:37.283Z,7.60
2022-10-08T04:27:37.444Z,7.30
2022-10-08T04:28:38.771Z,7.00
2022-10-08T04:29:37.762Z,7.60
2022-10-08T04:30:37.051Z,7.80
2022-10-08T04:31:37.465Z,7.20
2022-10-08T04:32:36.969Z,7.60
2022-10-08T04:33:37.441Z,7.60
2022-10-08T04:34:36.890Z,6.90
2022-10-08T04:35:36.969Z,6.90
2022-10-08T04:36:36.962Z,6.90
2022-10-08T04:37:37.129Z,7.00
2022-10-08T04:38:37.041Z,7.50
2022-10-08T04:39:36.943Z,7.30
2022-10-08T04:40:37.474Z,7.80
2022-10-08T04:43:24.659Z,7.70
2022-10-08T04:43:45.139Z,7.50
2022-10-08T04:44:45.132Z,7.40
2022-10-08T04:45:45.127Z,8.20
2022-10-08T04:46:45.345Z,8.10
2022-10-08T04:47:45.239Z,7.30
2022-10-08T04:48:45.081Z,7.80
2022-10-08T04:49:45.128Z,8.30
2022-10-08T04:50:45.103Z,8.20
2022-10-08T04:51:45.289Z,8.00
2022-10-08T04:52:45.312Z,8.20
2022-10-08T04:53:45.449Z,8.10
2022-10-08T04:54:45.072Z,7.80
2022-10-08T04:55:45.129Z,8.10
2022-10-08T04:56:45.288Z,8.10
2022-10-08T04:57:45.131Z,8.40
2022-10-08T04:58:45.393Z,8.30
2022-10-08T04:59:59.690Z,8.10
2022-10-08T05:00:46.070Z,7.90
2022-10-08T05:01:45.588Z,7.50
2022-10-08T05:02:45.451Z,8.20
2022-10-08T05:03:46.971Z,8.30
2022-10-08T05:04:45.288Z,8.70
2022-10-08T05:05:45.071Z,8.70
2022-10-08T05:06:45.051Z,7.70
2022-10-08T05:07:44.976Z,8.00
2022-10-08T05:08:44.979Z,7.80
2022-10-08T05:09:44.968Z,8.00
2022-10-08T05:10:45.300Z,8.50
2022-10-08T05:11:45.168Z,8.20
2022-10-08T05:12:45.271Z,8.40
2022-10-08T05:13:45.128Z,7.50
2022-10-08T05:14:44.820Z,8.00
2022-10-08T05:15:45.195Z,7.80
2022-10-08T05:16:44.968Z,7.90
2022-10-08T05:17:44.816Z,8.10
2022-10-08T05:18:44.969Z,7.70
2022-10-08T05:19:45.129Z,7.70
2022-10-08T05:20:44.968Z,7.90
2022-10-08T05:21:44.813Z,8.00
2022-10-08T05:22:45.038Z,8.00
2022-10-08T05:23:44.808Z,7.50
2022-10-08T05:24:44.643Z,7.50
2022-10-08T05:25:44.654Z,7.60
2022-10-08T05:27:02.587Z,7.90
2022-10-08T05:27:44.808Z,8.40
2022-10-08T05:28:44.758Z,7.80
2022-10-08T05:29:44.807Z,7.30
2022-10-08T05:30:45.313Z,8.00
2022-10-08T05:31:44.807Z,7.90
2022-10-08T05:32:44.971Z,7.50
2022-10-08T05:33:44.567Z,7.90
2022-10-08T05:34:44.597Z,8.20
2022-10-08T05:35:44.493Z,7.50
2022-10-08T05:36:45.829Z,7.90
2022-10-08T05:37:44.869Z,7.40
2022-10-08T05:38:44.450Z,8.00
2022-10-08T05:39:44.746Z,8.20
2022-10-08T05:40:45.607Z,8.00
2022-10-08T05:41:44.486Z,8.30
2022-10-08T05:42:44.977Z,7.80
2022-10-08T05:43:45.128Z,8.40
2022-10-08T05:44:45.600Z,8.50
2022-10-08T05:45:44.308Z,8.80
2022-10-08T05:46:45.004Z,8.30
2022-10-08T05:47:44.487Z,8.60
2022-10-08T05:48:45.643Z,8.30
2022-10-08T05:49:44.367Z,8.60
2022-10-08T05:50:44.389Z,8.90
2022-10-08T05:51:44.487Z,8.30
2022-10-08T05:52:47.063Z,8.60
2022-10-08T05:53:44.310Z,8.80
2022-10-08T05:54:44.285Z,8.90
2022-10-08T05:55:44.495Z,9.20
2022-10-08T05:56:44.678Z,9.40
2022-10-08T05:57:44.488Z,8.70
2022-10-08T05:58:44.198Z,8.90
2022-10-08T05:59:44.495Z,9.30
2022-10-08T06:01:05.413Z,9.00
2022-10-08T06:01:44.165Z,8.60
2022-10-08T06:02:46.560Z,8.90
2022-10-08T06:03:44.176Z,8.70
2022-10-08T06:04:45.382Z,8.80
2022-10-08T06:05:44.487Z,8.70
2022-10-08T06:06:44.368Z,8.60
2022-10-08T06:07:44.249Z,8.40
2022-10-08T06:08:44.368Z,8.70
2022-10-08T06:09:44.007Z,9.10
2022-10-08T06:10:44.327Z,8.60
2022-10-08T06:11:44.006Z,8.50
2022-10-08T06:12:45.001Z,8.40
2022-10-08T06:13:44.167Z,8.60
2022-10-08T06:14:44.646Z,8.10
2022-10-08T06:15:43.928Z,9.00
2022-10-08T06:16:44.578Z,8.90
2022-10-08T06:17:44.015Z,7.90
2022-10-08T06:18:44.169Z,8.00
2022-10-08T06:19:44.167Z,8.00
2022-10-08T06:20:44.007Z,8.50
2022-10-08T06:21:44.178Z,8.40
2022-10-08T06:22:44.015Z,8.90
2022-10-08T06:23:43.844Z,8.80
2022-10-08T06:24:44.328Z,8.50
2022-10-08T06:25:43.928Z,8.40
2022-10-08T06:26:44.006Z,7.90
2022-10-08T06:27:43.849Z,8.90
2022-10-08T06:28:44.052Z,8.90
2022-10-08T06:29:44.006Z,9.10
2022-10-08T06:30:44.007Z,8.40
2022-10-08T06:31:44.016Z,8.30
2022-10-08T06:32:44.029Z,8.60
2022-10-08T06:33:43.687Z,8.30
2022-10-08T06:34:44.327Z,8.60
2022-10-08T06:35:43.687Z,9.50
2022-10-08T06:36:45.288Z,9.70
2022-10-08T06:37:43.627Z,9.30
2022-10-08T06:38:43.687Z,9.10
2022-10-08T06:39:48.176Z,9.20
2022-10-08T06:40:43.575Z,9.30
2022-10-08T06:41:43.854Z,9.30
2022-10-08T06:42:43.715Z,9.90
2022-10-08T06:43:43.847Z,9.70
2022-10-08T06:44:43.689Z,9.80
2022-10-08T06:45:44.167Z,9.80
2022-10-08T06:46:43.823Z,10.20
2022-10-08T06:47:43.688Z,10.00
2022-10-08T06:48:43.687Z,10.20
2022-10-08T06:49:43.879Z,10.00
2022-10-08T06:50:43.687Z,10.20
2022-10-08T06:51:43.577Z,10.60
2022-10-08T06:52:43.523Z,10.00
2022-10-08T06:53:43.859Z,9.30
2022-10-08T06:54:43.687Z,10.50
2022-10-08T06:55:45.942Z,10.10
2022-10-08T06:56:43.511Z,10.10
2022-10-08T06:57:44.167Z,10.30
2022-10-08T06:58:43.498Z,9.50
2022-10-08T06:59:43.802Z,10.20
2022-10-08T07:00:43.565Z,10.40
2022-10-08T07:01:44.041Z,10.10
2022-10-08T07:02:43.697Z,10.10
2022-10-08T07:03:43.405Z,10.00
2022-10-08T07:04:43.338Z,9.40
2022-10-08T07:05:43.848Z,9.80
2022-10-08T07:06:43.299Z,10.00
2022-10-08T07:07:43.366Z,9.90
2022-10-08T07:08:43.367Z,9.50
2022-10-08T07:09:43.846Z,9.90
2022-10-08T07:10:43.208Z,10.10
2022-10-08T07:11:43.477Z,9.50
2022-10-08T07:12:43.145Z,9.30
2022-10-08T07:13:43.599Z,9.70
2022-10-08T07:14:43.129Z,9.70
2022-10-08T07:15:43.536Z,9.60
2022-10-08T07:16:43.191Z,9.60
2022-10-08T07:17:43.209Z,9.80
2022-10-08T07:18:43.132Z,9.80
2022-10-08T07:19:43.367Z,9.40
2022-10-08T07:20:43.207Z,10.30
2022-10-08T07:21:43.236Z,9.30
2022-10-08T07:22:43.232Z,10.00
2022-10-08T07:23:43.286Z,9.90
2022-10-08T07:24:43.095Z,10.40
2022-10-08T07:25:44.280Z,10.70
2022-10-08T07:26:42.970Z,10.40
2022-10-08T07:27:45.152Z,9.60
2022-10-08T07:28:43.677Z,10.00
2022-10-08T07:29:43.744Z,10.00
2022-10-08T07:30:43.023Z,10.10
2022-10-08T07:31:43.999Z,9.90
2022-10-08T07:32:43.048Z,10.00
2022-10-08T07:33:43.297Z,9.80
2022-10-08T07:34:42.897Z,10.00
2022-10-08T07:35:43.349Z,9.80
2022-10-08T07:36:43.367Z,9.80
2022-10-08T07:37:43.876Z,9.70
2022-10-08T07:38:43.717Z,9.60
2022-10-08T07:39:43.148Z,9.50
2022-10-08T07:40:43.049Z,9.80
2022-10-08T07:41:44.414Z,9.90
2022-10-08T07:42:43.046Z,10.60
2022-10-08T07:43:43.004Z,10.10
2022-10-08T07:44:42.761Z,10.10
2022-10-08T07:45:42.984Z,11.00
2022-10-08T07:46:42.811Z,10.50
2022-10-08T07:47:43.209Z,10.50
2022-10-08T07:48:42.810Z,10.20
2022-10-08T07:49:42.933Z,10.70
2022-10-08T07:50:42.656Z,10.80
2022-10-08T07:51:43.207Z,10.50
2022-10-08T07:52:42.727Z,10.70
2022-10-08T07:53:42.912Z,11.50
2022-10-08T07:54:42.602Z,10.80
2022-10-08T07:55:42.729Z,10.80
2022-10-08T07:56:42.727Z,10.60
2022-10-08T07:57:42.701Z,10.40
2022-10-08T07:58:42.631Z,10.80
2022-10-08T07:59:42.780Z,11.90
2022-10-08T08:00:42.595Z,12.90
2022-10-08T08:01:42.966Z,12.70
2022-10-08T08:02:42.741Z,12.00
2022-10-08T08:03:42.890Z,11.60
2022-10-08T08:04:42.733Z,12.80
2022-10-08T08:05:42.564Z,12.50
2022-10-08T08:06:42.489Z,12.20
2022-10-08T08:07:42.721Z,12.60
2022-10-08T08:08:42.491Z,12.40
2022-10-08T08:09:42.710Z,13.50
2022-10-08T08:10:42.728Z,15.90
2022-10-08T08:11:42.884Z,13.40
2022-10-08T08:12:42.361Z,14.40
2022-10-08T08:13:42.889Z,12.00
2022-10-08T08:14:43.000Z,12.30
2022-10-08T08:15:42.887Z,12.30
2022-10-08T08:16:42.556Z,12.80
2022-10-08T08:17:43.152Z,12.80
2022-10-08T08:18:42.403Z,12.70
2022-10-08T08:19:43.210Z,12.30
2022-10-08T08:20:43.360Z,12.50
2022-10-08T08:21:42.491Z,12.90
2022-10-08T08:22:42.422Z,12.40
2022-10-08T08:23:42.573Z,12.50
2022-10-08T08:24:42.401Z,12.40
2022-10-08T08:25:42.402Z,13.10
2022-10-08T08:26:42.965Z,12.50
2022-10-08T08:27:43.221Z,13.20
2022-10-08T08:28:42.488Z,13.80
2022-10-08T08:29:42.340Z,13.50
2022-10-08T08:30:42.181Z,14.10
2022-10-08T08:31:43.417Z,13.60
2022-10-08T08:32:42.174Z,12.90
2022-10-08T08:33:42.192Z,12.80
2022-10-08T08:34:42.411Z,13.30
2022-10-08T08:35:42.571Z,13.10
2022-10-08T08:36:42.081Z,13.50
2022-10-08T08:37:42.279Z,14.00
2022-10-08T08:38:42.122Z,13.50
2022-10-08T08:39:43.111Z,13.50
2022-10-08T08:40:42.092Z,13.00
2022-10-08T08:41:42.250Z,13.20
2022-10-08T08:42:42.085Z,13.50
2022-10-08T08:43:42.124Z,12.80
2022-10-08T08:44:42.090Z,12.40
2022-10-08T08:45:46.954Z,12.70
2022-10-08T08:46:43.245Z,13.30
2022-10-08T08:47:42.244Z,13.50
2022-10-08T08:48:42.162Z,12.60
2022-10-08T08:49:42.052Z,12.60
2022-10-08T08:50:45.491Z,13.60
2022-10-08T08:51:43.004Z,12.50
2022-10-08T08:52:41.942Z,12.40
2022-10-08T08:53:42.442Z,12.40
2022-10-08T08:54:44.114Z,12.80
2022-10-08T08:55:42.020Z,13.20
2022-10-08T08:56:42.124Z,12.80
2022-10-08T08:57:41.773Z,11.90
2022-10-08T08:58:42.372Z,13.10
2022-10-08T08:59:42.124Z,13.30
2022-10-08T09:00:42.993Z,13.00
2022-10-08T09:01:41.944Z,12.90
2022-10-08T09:02:41.786Z,12.80
2022-10-08T09:03:41.699Z,12.70
2022-10-08T09:04:45.214Z,12.40
2022-10-08T09:05:41.740Z,13.20
2022-10-08T09:06:42.041Z,13.10
2022-10-08T09:07:41.779Z,12.60
2022-10-08T09:08:41.765Z,12.30
2022-10-08T09:09:42.672Z,12.80
2022-10-08T09:10:41.655Z,13.80
2022-10-08T09:11:41.676Z,13.50
2022-10-08T09:12:42.086Z,13.70
2022-10-08T09:13:41.699Z,13.10
2022-10-08T09:14:41.623Z,12.90
2022-10-08T09:15:41.681Z,12.80
2022-10-08T09:16:41.824Z,13.10
2022-10-08T09:17:41.928Z,13.20
2022-10-08T09:18:41.800Z,13.00
2022-10-08T09:19:41.613Z,12.50
2022-10-08T09:20:42.734Z,12.30
2022-10-08T09:21:41.930Z,12.60
2022-10-08T09:22:41.770Z,13.00
2022-10-08T09:23:41.923Z,12.70
2022-10-08T09:24:41.603Z,12.80
2022-10-08T09:25:41.453Z,12.90
2022-10-08T09:26:41.764Z,12.70
2022-10-08T09:27:41.381Z,12.80
2022-10-08T09:28:41.575Z,11.80
2022-10-08T09:29:41.364Z,12.20
2022-10-08T09:30:41.792Z,11.90
2022-10-08T09:31:41.372Z,12.30
2022-10-08T09:32:41.764Z,12.40
2022-10-08T09:33:41.389Z,12.70
2022-10-08T09:34:41.465Z,12.50
2022-10-08T09:35:41.374Z,13.30
2022-10-08T09:36:41.411Z,12.80
2022-10-08T09:37:41.284Z,12.90
2022-10-08T09:38:42.085Z,12.80
2022-10-08T09:39:41.479Z,12.40
2022-10-08T09:40:41.444Z,13.40
2022-10-08T09:41:41.384Z,13.00
2022-10-08T09:42:41.493Z,13.50
2022-10-08T09:43:41.375Z,13.40
2022-10-08T09:44:42.414Z,12.80
2022-10-08T09:45:41.398Z,12.80
2022-10-08T09:46:41.295Z,12.90
2022-10-08T09:47:41.134Z,13.70
2022-10-08T09:48:41.445Z,13.30
2022-10-08T09:49:41.137Z,13.50
2022-10-08T09:50:43.685Z,12.10
2022-10-08T09:51:41.617Z,12.70
2022-10-08T09:52:43.284Z,12.90
2022-10-08T09:53:41.285Z,13.20
2022-10-08T09:54:41.445Z,12.90
2022-10-08T09:55:41.295Z,12.90
2022-10-08T09:56:41.579Z,14.10
2022-10-08T09:57:43.753Z,12.90
2022-10-08T09:58:41.477Z,12.60
2022-10-08T09:59:41.381Z,12.90
2022-10-08T10:00:41.747Z,13.00
2022-10-08T10:01:41.141Z,12.40
2022-10-08T10:02:41.865Z,12.40
2022-10-08T10:03:41.415Z,11.60
2022-10-08T10:04:42.806Z,12.30
2022-10-08T10:05:41.746Z,11.40
2022-10-08T10:06:46.135Z,11.30
2022-10-08T10:07:41.259Z,11.90
2022-10-08T10:08:41.393Z,11.70
2022-10-08T10:09:41.265Z,11.70
2022-10-08T10:10:41.009Z,11.60
2022-10-08T10:11:41.436Z,11.60
2022-10-08T10:12:42.809Z,11.20
2022-10-08T10:13:41.142Z,11.40
2022-10-08T10:14:41.273Z,11.50
2022-10-08T10:15:41.097Z,10.90
2022-10-08T10:16:41.977Z,11.10
2022-10-08T10:17:40.730Z,10.30
2022-10-08T10:18:41.126Z,10.20
2022-10-08T10:19:40.709Z,10.20
2022-10-08T10:20:41.176Z,11.00
2022-10-08T10:21:40.684Z,10.80
2022-10-08T10:22:40.858Z,10.40
2022-10-08T10:23:40.967Z,10.80
2022-10-08T10:24:40.806Z,10.60
2022-10-08T10:25:40.975Z,10.50
2022-10-08T10:26:40.808Z,10.90
2022-10-08T10:27:40.967Z,10.20
2022-10-08T10:28:40.896Z,11.00
2022-10-08T10:29:40.736Z,9.70
2022-10-08T10:30:40.874Z,10.20
2022-10-08T10:31:40.649Z,10.50
2022-10-08T10:32:40.820Z,10.30
2022-10-08T10:33:40.646Z,9.70
2022-10-08T10:34:45.117Z,10.70
2022-10-08T10:35:41.221Z,10.30
2022-10-08T10:36:40.701Z,10.30
2022-10-08T10:37:42.387Z,10.70
2022-10-08T10:38:43.202Z,10.40
2022-10-08T10:39:41.421Z,10.40
2022-10-08T10:40:42.247Z,10.40
2022-10-08T10:41:40.892Z,10.30
2022-10-08T10:42:41.332Z,10.50
2022-10-08T10:43:41.098Z,10.00
2022-10-08T10:44:41.396Z,10.70
2022-10-08T10:45:41.340Z,10.00
2022-10-08T10:46:41.400Z,9.60
2022-10-08T10:47:40.647Z,10.00
2022-10-08T10:48:40.692Z,9.60
2022-10-08T10:49:41.302Z,10.00
2022-10-08T10:50:41.150Z,9.60
2022-10-08T10:51:42.021Z,9.30
2022-10-08T10:52:42.201Z,9.20
2022-10-08T10:53:43.091Z,8.80
2022-10-08T10:54:42.469Z,8.70
2022-10-08T10:55:42.205Z,9.50
2022-10-08T10:56:42.874Z,9.20
2022-10-08T10:57:41.474Z,9.20
2022-10-08T10:58:40.327Z,9.00
2022-10-08T10:59:40.649Z,8.40
2022-10-08T11:00:40.174Z,8.40
2022-10-08T11:01:40.735Z,8.40
2022-10-08T11:02:40.517Z,8.90
2022-10-08T11:03:41.131Z,8.80
2022-10-08T11:04:42.231Z,8.70
2022-10-08T11:05:41.148Z,7.50
2022-10-08T11:06:40.901Z,9.70
2022-10-08T11:07:41.757Z,9.00
2022-10-08T11:08:40.481Z,8.60
2022-10-08T11:09:40.666Z,8.90
2022-10-08T11:10:41.962Z,8.10
2022-10-08T11:11:41.045Z,8.70
2022-10-08T11:12:40.374Z,7.60
2022-10-08T11:13:41.052Z,8.00
2022-10-08T11:14:40.714Z,8.60
2022-10-08T11:15:41.147Z,8.50
2022-10-08T11:16:40.374Z,8.30
2022-10-08T11:17:40.999Z,7.60
2022-10-08T11:18:39.953Z,8.20
2022-10-08T11:19:40.324Z,8.60
2022-10-08T11:20:39.957Z,9.10
2022-10-08T11:22:01.135Z,8.40
2022-10-08T11:22:40.011Z,8.50
2022-10-08T11:23:40.004Z,8.00
2022-10-08T11:24:39.926Z,7.80
2022-10-08T11:25:55.993Z,5.60
2022-10-08T11:26:40.993Z,6.20
2022-10-08T11:27:39.846Z,8.00
2022-10-08T11:28:40.512Z,8.40
2022-10-08T11:29:39.784Z,8.50
2022-10-08T11:30:39.978Z,8.60
2022-10-08T11:31:39.776Z,8.80
2022-10-08T11:32:40.166Z,7.90
2022-10-08T11:33:39.849Z,8.20
2022-10-08T11:34:41.193Z,8.60
2022-10-08T11:35:40.004Z,8.00
2022-10-08T11:36:39.856Z,8.00
2022-10-08T11:37:39.778Z,6.90
2022-10-08T11:38:39.845Z,7.60
2022-10-08T11:39:39.684Z,8.10
2022-10-08T11:40:39.853Z,8.20
2022-10-08T11:41:39.772Z,8.20
2022-10-08T11:42:42.957Z,7.40
2022-10-08T11:43:40.726Z,7.90
2022-10-08T11:44:39.847Z,8.30
2022-10-08T11:45:39.587Z,8.10
2022-10-08T11:46:39.687Z,8.20
2022-10-08T11:47:40.075Z,8.70
2022-10-08T11:48:39.849Z,8.80
2022-10-08T11:49:39.769Z,7.20
2022-10-08T11:50:39.846Z,8.20
2022-10-08T11:51:39.846Z,8.50
2022-10-08T11:52:39.846Z,8.70
2022-10-08T11:53:39.777Z,8.60
2022-10-08T11:54:39.577Z,8.40
2022-10-08T11:55:39.462Z,8.30
2022-10-08T11:56:39.851Z,8.30
2022-10-08T11:58:06.138Z,9.10
2022-10-08T11:58:40.567Z,8.70
2022-10-08T11:59:39.449Z,8.50
2022-10-08T12:00:39.528Z,8.90
2022-10-08T12:01:39.367Z,9.20
2022-10-08T12:02:39.789Z,10.00
2022-10-08T12:03:39.430Z,9.20
2022-10-08T12:04:39.727Z,9.20
2022-10-08T12:05:39.448Z,9.20
2022-10-08T12:06:39.563Z,8.90
2022-10-08T12:07:39.689Z,8.60
2022-10-08T12:08:39.369Z,5.60
2022-10-08T12:09:40.010Z,5.20
2022-10-08T12:10:39.526Z,9.10
2022-10-08T12:11:39.458Z,8.00
2022-10-08T12:12:40.530Z,8.30
2022-10-08T12:13:39.208Z,7.00
2022-10-08T12:14:39.528Z,8.70
2022-10-08T12:15:39.262Z,8.20
2022-10-08T12:16:39.536Z,8.00
2022-10-08T12:17:39.688Z,8.40
2022-10-08T12:18:39.528Z,8.50
2022-10-08T12:19:39.367Z,9.00
2022-10-08T12:20:39.531Z,7.70
2022-10-08T12:21:39.208Z,8.70
2022-10-08T12:22:40.489Z,8.00
2022-10-08T12:23:39.140Z,7.90
2022-10-08T12:24:39.211Z,6.30
2022-10-08T12:25:39.049Z,8.70
2022-10-08T12:26:39.527Z,8.50
2022-10-08T12:27:39.050Z,8.10
2022-10-08T12:28:39.559Z,8.00
2022-10-08T12:29:39.132Z,8.60
2022-10-08T12:30:39.205Z,7.90
2022-10-08T12:31:39.179Z,7.90
2022-10-08T12:32:40.485Z,6.90
2022-10-08T12:33:39.202Z,5.30
2022-10-08T12:34:40.016Z,8.00
2022-10-08T12:35:39.136Z,5.60
2022-10-08T12:36:39.002Z,8.40
2022-10-08T12:37:39.369Z,8.50
2022-10-08T12:38:38.924Z,8.40
2022-10-08T12:39:39.053Z,7.60
2022-10-08T12:40:39.045Z,8.40
2022-10-08T12:41:39.045Z,8.60
2022-10-08T12:42:39.053Z,8.20
2022-10-08T12:43:39.052Z,8.00
2022-10-08T12:44:38.883Z,8.60
2022-10-08T12:45:39.044Z,8.20
2022-10-08T12:46:40.513Z,8.30
2022-10-08T12:47:39.044Z,6.00
2022-10-08T12:48:38.884Z,6.50
2022-10-08T12:49:38.804Z,5.20
2022-10-08T12:50:39.205Z,4.30
2022-10-08T12:51:38.735Z,5.20
2022-10-08T12:52:39.204Z,4.70
2022-10-08T12:53:38.804Z,8.50
2022-10-08T12:54:38.885Z,5.90
2022-10-08T12:55:39.045Z,6.00
2022-10-08T12:56:38.885Z,6.90
2022-10-08T12:57:38.645Z,7.50
2022-10-08T12:58:38.655Z,7.70
2022-10-08T12:59:38.586Z,6.90
2022-10-08T13:00:59.781Z,5.70
2022-10-08T13:01:38.607Z,5.70
2022-10-08T13:02:38.680Z,8.90
2022-10-08T13:03:38.575Z,6.00
2022-10-08T13:04:39.206Z,9.30
2022-10-08T13:05:38.516Z,9.30
2022-10-08T13:06:39.207Z,7.30
2022-10-08T13:07:38.488Z,7.40
2022-10-08T13:08:40.166Z,9.30
2022-10-08T13:09:38.688Z,8.90
2022-10-08T13:10:38.528Z,9.20
2022-10-08T13:11:38.495Z,9.60